<?xml version='1.0' encoding='UTF-8'?><gpx version="1.1" creator="JPX - https://github.com/jenetics/jpx" xmlns="http://www.topografix.com/GPX/1/1"><trk><trkseg><trkpt lat="45.71653398399886" lon="9.732121812252576"><ele>274.00000000000006</ele><time>2026-04-07T17:26:27.001Z</time></trkpt><trkpt lat="45.716468938050305" lon="9.732103074962327"><ele>274.0</ele><time>2026-04-07T17:26:31.001Z</time></trkpt><trkpt lat="45.716396197166844" lon="9.732077524405026"><ele>274.0</ele><time>2026-04-07T17:26:36.001Z</time></trkpt><trkpt lat="45.71633252036642" lon="9.732058792074719"><ele>274.0</ele><time>2026-04-07T17:26:40.001Z</time></trkpt><trkpt lat="45.716262400777985" lon="9.73201243334549"><ele>274.0</ele><time>2026-04-07T17:26:45.001Z</time></trkpt><trkpt lat="45.716205451376396" lon="9.731956233535868"><ele>274.00000000000006</ele><time>2026-04-07T17:26:49Z</time></trkpt><trkpt lat="45.71615328061871" lon="9.731879364464644"><ele>274.0</ele><time>2026-04-07T17:26:54Z</time></trkpt><trkpt lat="45.71610736155371" lon="9.731791833128968"><ele>273.8571428571429</ele><time>2026-04-07T17:26:59Z</time></trkpt><trkpt lat="45.7160819732872" lon="9.731708555510862"><ele>273.7142857142857</ele><time>2026-04-07T17:27:03Z</time></trkpt><trkpt lat="45.71605365191543" lon="9.731606946195665"><ele>273.57142857142856</ele><time>2026-04-07T17:27:08Z</time></trkpt><trkpt lat="45.71602782037109" lon="9.731524454305864"><ele>273.42857142857144</ele><time>2026-04-07T17:27:12Z</time></trkpt><trkpt lat="45.71599522611069" lon="9.731422284481965"><ele>273.2857142857143</ele><time>2026-04-07T17:27:17Z</time></trkpt><trkpt lat="45.71598124247523" lon="9.731331835667712"><ele>273.14285714285717</ele><time>2026-04-07T17:27:21Z</time></trkpt><trkpt lat="45.71595645032361" lon="9.7312471304846"><ele>273.0</ele><time>2026-04-07T17:27:25Z</time></trkpt><trkpt lat="45.715927985528516" lon="9.731151234804264"><ele>273.14285714285717</ele><time>2026-04-07T17:27:29Z</time></trkpt><trkpt lat="45.71594117887138" lon="9.731058085277038"><ele>273.2857142857143</ele><time>2026-04-07T17:27:34Z</time></trkpt><trkpt lat="45.7159314235463" lon="9.73094778650388"><ele>273.42857142857144</ele><time>2026-04-07T17:27:40Z</time></trkpt><trkpt lat="45.71592083149365" lon="9.73083857321094"><ele>273.57142857142856</ele><time>2026-04-07T17:27:44Z</time></trkpt><trkpt lat="45.715906417098495" lon="9.730737958022232"><ele>273.7142857142857</ele><time>2026-04-07T17:27:48Z</time></trkpt><trkpt lat="45.715969752343376" lon="9.730735541446291"><ele>273.8571428571429</ele><time>2026-04-07T17:27:52Z</time></trkpt><trkpt lat="45.716030207847936" lon="9.73070742156668"><ele>274.0</ele><time>2026-04-07T17:27:57Z</time></trkpt><trkpt lat="45.716106124373155" lon="9.730664601598656"><ele>273.5714285714286</ele><time>2026-04-07T17:28:02Z</time></trkpt><trkpt lat="45.71615339560737" lon="9.730599758775485"><ele>273.14285714285717</ele><time>2026-04-07T17:28:06Z</time></trkpt><trkpt lat="45.71619707056529" lon="9.730521982158987"><ele>272.7142857142857</ele><time>2026-04-07T17:28:10Z</time></trkpt><trkpt lat="45.71623891429353" lon="9.730448167777054"><ele>272.28571428571433</ele><time>2026-04-07T17:28:14Z</time></trkpt><trkpt lat="45.716288064008445" lon="9.730378173875245"><ele>271.8571428571429</ele><time>2026-04-07T17:28:17.999Z</time></trkpt><trkpt lat="45.7163351003958" lon="9.730297842359485"><ele>271.42857142857144</ele><time>2026-04-07T17:28:22.999Z</time></trkpt><trkpt lat="45.7163453841072" lon="9.730202583681015"><ele>271.0</ele><time>2026-04-07T17:28:27Z</time></trkpt><trkpt lat="45.716352154079715" lon="9.73011157755673"><ele>271.0</ele><time>2026-04-07T17:28:31Z</time></trkpt><trkpt lat="45.7163441444606" lon="9.730009795802134"><ele>271.0</ele><time>2026-04-07T17:28:35Z</time></trkpt><trkpt lat="45.716370778398286" lon="9.729925518280142"><ele>271.0</ele><time>2026-04-07T17:28:39Z</time></trkpt><trkpt lat="45.716382938417276" lon="9.729820944565576"><ele>271.0</ele><time>2026-04-07T17:28:44Z</time></trkpt><trkpt lat="45.716404421378385" lon="9.72971552228143"><ele>271.0</ele><time>2026-04-07T17:28:48Z</time></trkpt><trkpt lat="45.716410892375045" lon="9.729603899975709"><ele>271.0</ele><time>2026-04-07T17:28:52Z</time></trkpt><trkpt lat="45.71642047247463" lon="9.72950822554902"><ele>271.0</ele><time>2026-04-07T17:28:56Z</time></trkpt><trkpt lat="45.71642659524931" lon="9.72940354029592"><ele>271.2857142857143</ele><time>2026-04-07T17:29:02Z</time></trkpt><trkpt lat="45.716432840258996" lon="9.729312366692659"><ele>271.57142857142856</ele><time>2026-04-07T17:29:06Z</time></trkpt><trkpt lat="45.716422287474295" lon="9.729221151932332"><ele>271.8571428571429</ele><time>2026-04-07T17:29:09Z</time></trkpt><trkpt lat="45.71644260516678" lon="9.729129907805694"><ele>272.1428571428571</ele><time>2026-04-07T17:29:13Z</time></trkpt><trkpt lat="45.716456408167474" lon="9.729023544430218"><ele>272.42857142857144</ele><time>2026-04-07T17:29:18Z</time></trkpt><trkpt lat="45.71647811150865" lon="9.728908606862612"><ele>272.7142857142857</ele><time>2026-04-07T17:29:24Z</time></trkpt><trkpt lat="45.716480485662274" lon="9.728816541357837"><ele>273.0</ele><time>2026-04-07T17:29:27Z</time></trkpt><trkpt lat="45.71649650197235" lon="9.72872229339412"><ele>273.0</ele><time>2026-04-07T17:29:31Z</time></trkpt><trkpt lat="45.71650018886326" lon="9.7286164542372"><ele>273.0</ele><time>2026-04-07T17:29:35Z</time></trkpt><trkpt lat="45.71652704758325" lon="9.728513287604487"><ele>273.0</ele><time>2026-04-07T17:29:41Z</time></trkpt><trkpt lat="45.716524551498615" lon="9.728421910010928"><ele>273.0</ele><time>2026-04-07T17:29:44Z</time></trkpt><trkpt lat="45.71653097544361" lon="9.728330679221347"><ele>273.0</ele><time>2026-04-07T17:29:49Z</time></trkpt><trkpt lat="45.71648310849712" lon="9.728270857724594"><ele>273.0</ele><time>2026-04-07T17:29:52Z</time></trkpt><trkpt lat="45.71646823496261" lon="9.728172237568963"><ele>273.0</ele><time>2026-04-07T17:29:56Z</time></trkpt><trkpt lat="45.716535151912026" lon="9.728113816362756"><ele>272.7142857142857</ele><time>2026-04-07T17:30:00Z</time></trkpt><trkpt lat="45.7166001257234" lon="9.728121364886546"><ele>272.42857142857144</ele><time>2026-04-07T17:30:04Z</time></trkpt><trkpt lat="45.71666917126522" lon="9.728111088692648"><ele>272.1428571428571</ele><time>2026-04-07T17:30:08Z</time></trkpt><trkpt lat="45.71674363555487" lon="9.72812437156389"><ele>271.8571428571429</ele><time>2026-04-07T17:30:13Z</time></trkpt><trkpt lat="45.71681559825747" lon="9.728123911675704"><ele>271.57142857142856</ele><time>2026-04-07T17:30:17Z</time></trkpt><trkpt lat="45.71688541477572" lon="9.728143007582652"><ele>271.2857142857143</ele><time>2026-04-07T17:30:20.999Z</time></trkpt><trkpt lat="45.71695161724898" lon="9.728136842311528"><ele>271.0</ele><time>2026-04-07T17:30:24.999Z</time></trkpt><trkpt lat="45.7170182454886" lon="9.728156593642657"><ele>270.7142857142857</ele><time>2026-04-07T17:30:28.999Z</time></trkpt><trkpt lat="45.71709291718917" lon="9.728167655014323"><ele>270.42857142857144</ele><time>2026-04-07T17:30:34.001Z</time></trkpt><trkpt lat="45.717168374625956" lon="9.72817823057507"><ele>270.14285714285717</ele><time>2026-04-07T17:30:39.001Z</time></trkpt><trkpt lat="45.717238606772206" lon="9.72817033745979"><ele>269.8571428571429</ele><time>2026-04-07T17:30:43.001Z</time></trkpt><trkpt lat="45.717304234337284" lon="9.728193062090515"><ele>269.5714285714286</ele><time>2026-04-07T17:30:47.001Z</time></trkpt><trkpt lat="45.7173732094244" lon="9.72821091380133"><ele>269.2857142857143</ele><time>2026-04-07T17:30:51Z</time></trkpt><trkpt lat="45.717438285541995" lon="9.728240265468742"><ele>269.0</ele><time>2026-04-07T17:30:55Z</time></trkpt><trkpt lat="45.71751538343695" lon="9.728235345949761"><ele>269.0</ele><time>2026-04-07T17:31:01Z</time></trkpt><trkpt lat="45.71758685189596" lon="9.728237124346053"><ele>269.0</ele><time>2026-04-07T17:31:06Z</time></trkpt><trkpt lat="45.71765454333219" lon="9.728238200720622"><ele>269.0</ele><time>2026-04-07T17:31:10Z</time></trkpt><trkpt lat="45.717720323102526" lon="9.728276749677494"><ele>269.0</ele><time>2026-04-07T17:31:16Z</time></trkpt><trkpt lat="45.717793906954306" lon="9.728286218321246"><ele>269.0</ele><time>2026-04-07T17:31:19Z</time></trkpt><trkpt lat="45.717867854549525" lon="9.72829693900118"><ele>269.0</ele><time>2026-04-07T17:31:23Z</time></trkpt><trkpt lat="45.71793787343553" lon="9.72829805209614"><ele>269.0</ele><time>2026-04-07T17:31:27Z</time></trkpt><trkpt lat="45.718015352152385" lon="9.728298725379432"><ele>269.0</ele><time>2026-04-07T17:31:32Z</time></trkpt><trkpt lat="45.71807833805164" lon="9.728287964818936"><ele>269.0</ele><time>2026-04-07T17:31:36Z</time></trkpt><trkpt lat="45.71815492338927" lon="9.728284536326251"><ele>269.0</ele><time>2026-04-07T17:31:41Z</time></trkpt><trkpt lat="45.71822690994339" lon="9.728276049305068"><ele>269.0</ele><time>2026-04-07T17:31:45Z</time></trkpt><trkpt lat="45.718290715334504" lon="9.728259390261075"><ele>269.0</ele><time>2026-04-07T17:31:49Z</time></trkpt><trkpt lat="45.7183543367244" lon="9.728253096931928"><ele>269.0</ele><time>2026-04-07T17:31:53Z</time></trkpt><trkpt lat="45.718418762302974" lon="9.72822646549695"><ele>269.0</ele><time>2026-04-07T17:31:57Z</time></trkpt><trkpt lat="45.71848501540108" lon="9.728214905586519"><ele>269.0</ele><time>2026-04-07T17:32:01Z</time></trkpt><trkpt lat="45.718556654083834" lon="9.728203063029554"><ele>269.0</ele><time>2026-04-07T17:32:06Z</time></trkpt><trkpt lat="45.718624150689685" lon="9.728179919048312"><ele>269.0</ele><time>2026-04-07T17:32:11Z</time></trkpt><trkpt lat="45.71866252842563" lon="9.72809072773777"><ele>269.0</ele><time>2026-04-07T17:32:16Z</time></trkpt><trkpt lat="45.71871295562491" lon="9.728035776683745"><ele>269.0</ele><time>2026-04-07T17:32:20Z</time></trkpt><trkpt lat="45.718768242392066" lon="9.727971440522504"><ele>269.0</ele><time>2026-04-07T17:32:25Z</time></trkpt><trkpt lat="45.71882522270112" lon="9.727894904870482"><ele>269.0</ele><time>2026-04-07T17:32:29.999Z</time></trkpt><trkpt lat="45.718874339381514" lon="9.727827404556"><ele>269.0</ele><time>2026-04-07T17:32:33.999Z</time></trkpt><trkpt lat="45.718926154506974" lon="9.727741198648754"><ele>269.0</ele><time>2026-04-07T17:32:39.001Z</time></trkpt><trkpt lat="45.7189596836792" lon="9.727660951115222"><ele>269.0</ele><time>2026-04-07T17:32:43.001Z</time></trkpt><trkpt lat="45.718988824987676" lon="9.727579752292094"><ele>269.0</ele><time>2026-04-07T17:32:47.001Z</time></trkpt><trkpt lat="45.71903500984193" lon="9.727488509887438"><ele>269.0</ele><time>2026-04-07T17:32:52.001Z</time></trkpt><trkpt lat="45.71909750377814" lon="9.727456549118244"><ele>269.0</ele><time>2026-04-07T17:32:56Z</time></trkpt><trkpt lat="45.719166755675595" lon="9.727470725415616"><ele>269.0</ele><time>2026-04-07T17:33:01Z</time></trkpt><trkpt lat="45.71922962457792" lon="9.727488237361705"><ele>268.42857142857144</ele><time>2026-04-07T17:33:05Z</time></trkpt><trkpt lat="45.7192994939284" lon="9.72750145109332"><ele>267.8571428571429</ele><time>2026-04-07T17:33:09Z</time></trkpt><trkpt lat="45.719366176226735" lon="9.727508204317019"><ele>267.2857142857143</ele><time>2026-04-07T17:33:13Z</time></trkpt><trkpt lat="45.7194318973908" lon="9.72750239398356"><ele>266.7142857142857</ele><time>2026-04-07T17:33:17Z</time></trkpt><trkpt lat="45.719496636677555" lon="9.727515351028277"><ele>266.1428571428571</ele><time>2026-04-07T17:33:21Z</time></trkpt><trkpt lat="45.71956384012082" lon="9.727521661852034"><ele>265.57142857142856</ele><time>2026-04-07T17:33:25Z</time></trkpt><trkpt lat="45.71963442980844" lon="9.727520715748957"><ele>265.0</ele><time>2026-04-07T17:33:29Z</time></trkpt><trkpt lat="45.719699356339376" lon="9.727513874123911"><ele>264.85714285714283</ele><time>2026-04-07T17:33:33Z</time></trkpt><trkpt lat="45.719772708434235" lon="9.727497640307579"><ele>264.7142857142857</ele><time>2026-04-07T17:33:38Z</time></trkpt><trkpt lat="45.71983166644245" lon="9.727454386376163"><ele>264.57142857142856</ele><time>2026-04-07T17:33:43Z</time></trkpt><trkpt lat="45.71989421300183" lon="9.727443559680191"><ele>264.42857142857144</ele><time>2026-04-07T17:33:47Z</time></trkpt><trkpt lat="45.71996714766044" lon="9.727446315110042"><ele>264.2857142857143</ele><time>2026-04-07T17:33:52Z</time></trkpt><trkpt lat="45.72003462112027" lon="9.72742067858898"><ele>264.1428571428571</ele><time>2026-04-07T17:33:56Z</time></trkpt><trkpt lat="45.72009776745656" lon="9.727431105354682"><ele>264.0</ele><time>2026-04-07T17:34:00Z</time></trkpt><trkpt lat="45.720164323729165" lon="9.727445317864975"><ele>264.42857142857144</ele><time>2026-04-07T17:34:05Z</time></trkpt><trkpt lat="45.72023998070137" lon="9.727461968748585"><ele>264.8571428571429</ele><time>2026-04-07T17:34:10Z</time></trkpt><trkpt lat="45.72031028931063" lon="9.72746733430138"><ele>265.28571428571433</ele><time>2026-04-07T17:34:14Z</time></trkpt><trkpt lat="45.720377997488114" lon="9.727477243592789"><ele>265.7142857142857</ele><time>2026-04-07T17:34:18Z</time></trkpt><trkpt lat="45.720456212021155" lon="9.727480806003337"><ele>266.14285714285717</ele><time>2026-04-07T17:34:23Z</time></trkpt><trkpt lat="45.72052345256742" lon="9.727481906545636"><ele>266.5714285714286</ele><time>2026-04-07T17:34:27Z</time></trkpt><trkpt lat="45.72058700845101" lon="9.727478014976997"><ele>267.0</ele><time>2026-04-07T17:34:30.999Z</time></trkpt><trkpt lat="45.72064994496" lon="9.727469838809345"><ele>267.00000000000006</ele><time>2026-04-07T17:34:34.999Z</time></trkpt><trkpt lat="45.72071694821567" lon="9.727441040214549"><ele>267.0</ele><time>2026-04-07T17:34:38.999Z</time></trkpt><trkpt lat="45.72079389565983" lon="9.727430911894317"><ele>267.0</ele><time>2026-04-07T17:34:43.999Z</time></trkpt><trkpt lat="45.72086169132412" lon="9.727444921786516"><ele>267.0</ele><time>2026-04-07T17:34:47.999Z</time></trkpt><trkpt lat="45.72092661573146" lon="9.727465868304888"><ele>267.0</ele><time>2026-04-07T17:34:52Z</time></trkpt><trkpt lat="45.72099293990506" lon="9.72748712881014"><ele>267.00000000000006</ele><time>2026-04-07T17:34:56Z</time></trkpt><trkpt lat="45.721056713616704" lon="9.727503518510165"><ele>267.0</ele><time>2026-04-07T17:35:00Z</time></trkpt><trkpt lat="45.72112036043824" lon="9.727522223214038"><ele>266.8571428571429</ele><time>2026-04-07T17:35:04Z</time></trkpt><trkpt lat="45.72118373673571" lon="9.727544985620442"><ele>266.7142857142857</ele><time>2026-04-07T17:35:08Z</time></trkpt><trkpt lat="45.72125546181562" lon="9.727556483186113"><ele>266.57142857142856</ele><time>2026-04-07T17:35:13Z</time></trkpt><trkpt lat="45.72132411255691" lon="9.727599993844606"><ele>266.42857142857144</ele><time>2026-04-07T17:35:23Z</time></trkpt><trkpt lat="45.72139771548354" lon="9.727614752866105"><ele>266.2857142857143</ele><time>2026-04-07T17:35:28Z</time></trkpt><trkpt lat="45.721466651118114" lon="9.727636984339068"><ele>266.14285714285717</ele><time>2026-04-07T17:35:32Z</time></trkpt><trkpt lat="45.72153325948041" lon="9.727650041579533"><ele>266.0</ele><time>2026-04-07T17:35:36Z</time></trkpt><trkpt lat="45.72160496846581" lon="9.727675329592365"><ele>266.0</ele><time>2026-04-07T17:35:41Z</time></trkpt><trkpt lat="45.72166663075687" lon="9.727710872125959"><ele>266.0</ele><time>2026-04-07T17:35:46Z</time></trkpt><trkpt lat="45.72172914386794" lon="9.727730588135486"><ele>266.0</ele><time>2026-04-07T17:35:48.999Z</time></trkpt><trkpt lat="45.72179346747901" lon="9.727740296330758"><ele>266.0</ele><time>2026-04-07T17:35:52.999Z</time></trkpt><trkpt lat="45.721861842003975" lon="9.727743373178916"><ele>266.0</ele><time>2026-04-07T17:35:57.999Z</time></trkpt><trkpt lat="45.721938169301445" lon="9.727753788316106"><ele>266.0</ele><time>2026-04-07T17:36:03.999Z</time></trkpt><trkpt lat="45.72200498117596" lon="9.727758491454015"><ele>266.0</ele><time>2026-04-07T17:36:06.999Z</time></trkpt><trkpt lat="45.7220787260496" lon="9.72774517870013"><ele>266.2857142857143</ele><time>2026-04-07T17:36:11.999Z</time></trkpt><trkpt lat="45.722152436837355" lon="9.727762664943743"><ele>266.57142857142856</ele><time>2026-04-07T17:36:15.999Z</time></trkpt><trkpt lat="45.7222163325536" lon="9.727742246623603"><ele>266.8571428571429</ele><time>2026-04-07T17:36:19.999Z</time></trkpt><trkpt lat="45.7222706167414" lon="9.72768940660587"><ele>267.1428571428571</ele><time>2026-04-07T17:36:24.999Z</time></trkpt><trkpt lat="45.72232092818837" lon="9.727752106171671"><ele>267.42857142857144</ele><time>2026-04-07T17:36:34.999Z</time></trkpt><trkpt lat="45.72239907518489" lon="9.727760376268733"><ele>267.7142857142857</ele><time>2026-04-07T17:36:39.999Z</time></trkpt><trkpt lat="45.72246482632597" lon="9.72775410959595"><ele>268.0</ele><time>2026-04-07T17:36:43.999Z</time></trkpt><trkpt lat="45.72254314514965" lon="9.727762138608357"><ele>268.42857142857144</ele><time>2026-04-07T17:36:48.999Z</time></trkpt><trkpt lat="45.722613642458825" lon="9.727786202154716"><ele>268.85714285714283</ele><time>2026-04-07T17:36:54Z</time></trkpt><trkpt lat="45.7226877692685" lon="9.727827511135523"><ele>269.2857142857143</ele><time>2026-04-07T17:36:59Z</time></trkpt><trkpt lat="45.72275225589067" lon="9.727840917293316"><ele>269.7142857142857</ele><time>2026-04-07T17:37:03Z</time></trkpt><trkpt lat="45.722814874789506" lon="9.727851480464295"><ele>270.14285714285717</ele><time>2026-04-07T17:37:07Z</time></trkpt><trkpt lat="45.722874546491404" lon="9.727907114388792"><ele>270.57142857142856</ele><time>2026-04-07T17:37:11Z</time></trkpt><trkpt lat="45.72294370456355" lon="9.72793283943557"><ele>271.0</ele><time>2026-04-07T17:37:15Z</time></trkpt><trkpt lat="45.72300246381446" lon="9.727967442017096"><ele>271.42857142857144</ele><time>2026-04-07T17:37:19Z</time></trkpt><trkpt lat="45.723066796693246" lon="9.728020819880092"><ele>271.8571428571429</ele><time>2026-04-07T17:37:24Z</time></trkpt><trkpt lat="45.72313866263315" lon="9.728053595043686"><ele>272.28571428571433</ele><time>2026-04-07T17:37:29Z</time></trkpt><trkpt lat="45.72319249636217" lon="9.728102703020067"><ele>272.7142857142857</ele><time>2026-04-07T17:37:33Z</time></trkpt><trkpt lat="45.72325772063495" lon="9.728133579444004"><ele>273.14285714285717</ele><time>2026-04-07T17:37:38Z</time></trkpt><trkpt lat="45.723321546636036" lon="9.728150906441067"><ele>273.5714285714286</ele><time>2026-04-07T17:37:42Z</time></trkpt><trkpt lat="45.72339012742636" lon="9.7281725277169"><ele>274.0</ele><time>2026-04-07T17:37:46Z</time></trkpt><trkpt lat="45.72345380836877" lon="9.728173570967243"><ele>274.00000000000006</ele><time>2026-04-07T17:37:49Z</time></trkpt><trkpt lat="45.72351438243554" lon="9.728201784422694"><ele>274.0</ele><time>2026-04-07T17:37:53Z</time></trkpt><trkpt lat="45.72358793390587" lon="9.72822002595376"><ele>274.0</ele><time>2026-04-07T17:37:58Z</time></trkpt><trkpt lat="45.723651530877426" lon="9.728242348629237"><ele>274.0</ele><time>2026-04-07T17:38:02Z</time></trkpt><trkpt lat="45.72371985582106" lon="9.728252834480768"><ele>274.0</ele><time>2026-04-07T17:38:06Z</time></trkpt><trkpt lat="45.72378523617544" lon="9.728241806151628"><ele>274.00000000000006</ele><time>2026-04-07T17:38:10Z</time></trkpt><trkpt lat="45.72386069304831" lon="9.728252854704046"><ele>274.0</ele><time>2026-04-07T17:38:14Z</time></trkpt><trkpt lat="45.72393330136522" lon="9.72823330855474"><ele>273.7142857142857</ele><time>2026-04-07T17:38:18Z</time></trkpt><trkpt lat="45.72401411309747" lon="9.728235808846508"><ele>273.42857142857144</ele><time>2026-04-07T17:38:22.999Z</time></trkpt><trkpt lat="45.72407976694053" lon="9.728209740777572"><ele>273.1428571428571</ele><time>2026-04-07T17:38:26.999Z</time></trkpt><trkpt lat="45.72415014881936" lon="9.728191927856304"><ele>272.8571428571429</ele><time>2026-04-07T17:38:30.999Z</time></trkpt><trkpt lat="45.72421828761532" lon="9.728215078759044"><ele>272.57142857142856</ele><time>2026-04-07T17:38:34.999Z</time></trkpt><trkpt lat="45.72428564180155" lon="9.728241859197045"><ele>272.2857142857143</ele><time>2026-04-07T17:38:39.999Z</time></trkpt><trkpt lat="45.72435552278221" lon="9.728252214046584"><ele>272.0</ele><time>2026-04-07T17:38:43.999Z</time></trkpt><trkpt lat="45.72442399130186" lon="9.728284585072096"><ele>271.85714285714283</ele><time>2026-04-07T17:38:47.999Z</time></trkpt><trkpt lat="45.72448988831103" lon="9.728303203590777"><ele>271.7142857142857</ele><time>2026-04-07T17:38:52.999Z</time></trkpt><trkpt lat="45.72456652161633" lon="9.728325796500245"><ele>271.57142857142856</ele><time>2026-04-07T17:38:58Z</time></trkpt><trkpt lat="45.72463076864037" lon="9.728333333075698"><ele>271.42857142857144</ele><time>2026-04-07T17:39:01Z</time></trkpt><trkpt lat="45.724708726393196" lon="9.728334157559118"><ele>271.2857142857143</ele><time>2026-04-07T17:39:04Z</time></trkpt><trkpt lat="45.7247886979119" lon="9.728371358446028"><ele>271.1428571428571</ele><time>2026-04-07T17:39:07Z</time></trkpt><trkpt lat="45.72484663563338" lon="9.728435034292442"><ele>271.0</ele><time>2026-04-07T17:39:11Z</time></trkpt><trkpt lat="45.72490340273071" lon="9.728497783133903"><ele>271.2857142857143</ele><time>2026-04-07T17:39:15Z</time></trkpt><trkpt lat="45.7249612387732" lon="9.728578347862637"><ele>271.57142857142856</ele><time>2026-04-07T17:39:20Z</time></trkpt><trkpt lat="45.72500890686365" lon="9.728645131964662"><ele>271.8571428571429</ele><time>2026-04-07T17:39:24Z</time></trkpt><trkpt lat="45.72506400389505" lon="9.728694124502997"><ele>272.1428571428571</ele><time>2026-04-07T17:39:28Z</time></trkpt><trkpt lat="45.72512251598265" lon="9.728733893010968"><ele>272.42857142857144</ele><time>2026-04-07T17:39:32Z</time></trkpt><trkpt lat="45.72517001758229" lon="9.72880434802743"><ele>272.7142857142857</ele><time>2026-04-07T17:39:36Z</time></trkpt><trkpt lat="45.72522346596938" lon="9.728889853367042"><ele>273.0</ele><time>2026-04-07T17:39:41Z</time></trkpt><trkpt lat="45.72528908870439" lon="9.728947023954268"><ele>273.0</ele><time>2026-04-07T17:39:45Z</time></trkpt><trkpt lat="45.72534815624545" lon="9.729006491556428"><ele>273.0</ele><time>2026-04-07T17:39:49Z</time></trkpt><trkpt lat="45.725399684810625" lon="9.729086392827593"><ele>273.0</ele><time>2026-04-07T17:39:54Z</time></trkpt><trkpt lat="45.725456917873395" lon="9.729160933297974"><ele>273.0</ele><time>2026-04-07T17:39:59Z</time></trkpt><trkpt lat="45.725499778744854" lon="9.729243718827211"><ele>273.0</ele><time>2026-04-07T17:40:04Z</time></trkpt><trkpt lat="45.72556221964199" lon="9.729303830228101"><ele>273.0</ele><time>2026-04-07T17:40:09Z</time></trkpt><trkpt lat="45.725602579602196" lon="9.729392191909069"><ele>273.0</ele><time>2026-04-07T17:40:14Z</time></trkpt><trkpt lat="45.72564517287389" lon="9.729475460582057"><ele>272.85714285714283</ele><time>2026-04-07T17:40:19Z</time></trkpt><trkpt lat="45.725708018344534" lon="9.729539776487776"><ele>272.7142857142857</ele><time>2026-04-07T17:40:24Z</time></trkpt><trkpt lat="45.72576569191869" lon="9.729618317116692"><ele>272.57142857142856</ele><time>2026-04-07T17:40:29Z</time></trkpt><trkpt lat="45.72581494625342" lon="9.729690012002257"><ele>272.42857142857144</ele><time>2026-04-07T17:40:33Z</time></trkpt><trkpt lat="45.72586268886269" lon="9.729754230482534"><ele>272.2857142857143</ele><time>2026-04-07T17:40:37Z</time></trkpt><trkpt lat="45.72591006655201" lon="9.729815671158542"><ele>272.1428571428571</ele><time>2026-04-07T17:40:41Z</time></trkpt><trkpt lat="45.725957482127335" lon="9.729878106604424"><ele>272.0</ele><time>2026-04-07T17:40:45Z</time></trkpt><trkpt lat="45.72600740660461" lon="9.72994468056916"><ele>271.99999999999994</ele><time>2026-04-07T17:40:49Z</time></trkpt><trkpt lat="45.72605672679026" lon="9.730003033958969"><ele>272.0</ele><time>2026-04-07T17:40:53Z</time></trkpt><trkpt lat="45.726099962828364" lon="9.73007204710424"><ele>272.0</ele><time>2026-04-07T17:40:57Z</time></trkpt><trkpt lat="45.726155064917336" lon="9.730140896261952"><ele>272.0</ele><time>2026-04-07T17:41:01Z</time></trkpt><trkpt lat="45.72620847776059" lon="9.730216770187427"><ele>272.0</ele><time>2026-04-07T17:41:06Z</time></trkpt><trkpt lat="45.72625504438707" lon="9.730295856023632"><ele>271.99999999999994</ele><time>2026-04-07T17:41:10Z</time></trkpt><trkpt lat="45.726311596704036" lon="9.730351464317843"><ele>272.0</ele><time>2026-04-07T17:41:14Z</time></trkpt><trkpt lat="45.726357330824385" lon="9.73041851044869"><ele>271.85714285714283</ele><time>2026-04-07T17:41:18Z</time></trkpt><trkpt lat="45.72640240865479" lon="9.730484595445503"><ele>271.7142857142857</ele><time>2026-04-07T17:41:22Z</time></trkpt><trkpt lat="45.726450809536175" lon="9.73054951815665"><ele>271.57142857142856</ele><time>2026-04-07T17:41:26Z</time></trkpt><trkpt lat="45.72651152526226" lon="9.730597541908075"><ele>271.42857142857144</ele><time>2026-04-07T17:41:30Z</time></trkpt><trkpt lat="45.726550665667546" lon="9.730672015998321"><ele>271.2857142857143</ele><time>2026-04-07T17:41:34Z</time></trkpt><trkpt lat="45.72659917751749" lon="9.730732591867984"><ele>271.1428571428571</ele><time>2026-04-07T17:41:38Z</time></trkpt><trkpt lat="45.72664524134697" lon="9.730824788461213"><ele>271.0</ele><time>2026-04-07T17:41:43Z</time></trkpt><trkpt lat="45.72671680252982" lon="9.730881419810975"><ele>271.0</ele><time>2026-04-07T17:41:48Z</time></trkpt><trkpt lat="45.72677518581308" lon="9.73093917277066"><ele>271.0</ele><time>2026-04-07T17:41:52Z</time></trkpt><trkpt lat="45.72682116777493" lon="9.731010382664516"><ele>271.0</ele><time>2026-04-07T17:41:56Z</time></trkpt><trkpt lat="45.72687498100727" lon="9.731067303100287"><ele>271.0</ele><time>2026-04-07T17:42:00Z</time></trkpt><trkpt lat="45.726907421474614" lon="9.731153318910694"><ele>271.0</ele><time>2026-04-07T17:42:04Z</time></trkpt><trkpt lat="45.72696517066369" lon="9.731200235263628"><ele>271.0</ele><time>2026-04-07T17:42:08Z</time></trkpt><trkpt lat="45.727021193888326" lon="9.73127161194692"><ele>271.0</ele><time>2026-04-07T17:42:12Z</time></trkpt><trkpt lat="45.727051994994994" lon="9.731354549737851"><ele>271.1428571428571</ele><time>2026-04-07T17:42:16Z</time></trkpt><trkpt lat="45.727113817203765" lon="9.73141814628064"><ele>271.2857142857143</ele><time>2026-04-07T17:42:21Z</time></trkpt><trkpt lat="45.727159848811255" lon="9.731489982097312"><ele>271.42857142857144</ele><time>2026-04-07T17:42:25Z</time></trkpt><trkpt lat="45.72718056402443" lon="9.731595556830925"><ele>271.57142857142856</ele><time>2026-04-07T17:42:30Z</time></trkpt><trkpt lat="45.72716086311763" lon="9.731699451683921"><ele>271.7142857142857</ele><time>2026-04-07T17:42:35Z</time></trkpt><trkpt lat="45.72712041609486" lon="9.73179456630278"><ele>271.85714285714283</ele><time>2026-04-07T17:42:40Z</time></trkpt><trkpt lat="45.727088976391364" lon="9.731877068069007"><ele>272.0</ele><time>2026-04-07T17:42:44Z</time></trkpt><trkpt lat="45.72703760622818" lon="9.731932807547219"><ele>272.2857142857143</ele><time>2026-04-07T17:42:48Z</time></trkpt><trkpt lat="45.72698939093881" lon="9.732002211409341"><ele>272.57142857142856</ele><time>2026-04-07T17:42:52Z</time></trkpt><trkpt lat="45.72694423894627" lon="9.732071602596726"><ele>272.8571428571429</ele><time>2026-04-07T17:42:56Z</time></trkpt><trkpt lat="45.726899089295095" lon="9.732142630676577"><ele>273.1428571428571</ele><time>2026-04-07T17:43:00Z</time></trkpt><trkpt lat="45.726863979353716" lon="9.732222152664287"><ele>273.42857142857144</ele><time>2026-04-07T17:43:03.999Z</time></trkpt><trkpt lat="45.726816744931696" lon="9.732316810001338"><ele>273.7142857142857</ele><time>2026-04-07T17:43:09Z</time></trkpt><trkpt lat="45.726780114252705" lon="9.73241125891309"><ele>274.0</ele><time>2026-04-07T17:43:14Z</time></trkpt><trkpt lat="45.72672695850436" lon="9.732487838269043"><ele>274.0</ele><time>2026-04-07T17:43:19Z</time></trkpt><trkpt lat="45.72672600347021" lon="9.732596001280314"><ele>274.0</ele><time>2026-04-07T17:43:25Z</time></trkpt><trkpt lat="45.726726408152366" lon="9.732694046315464"><ele>274.0</ele><time>2026-04-07T17:43:32Z</time></trkpt><trkpt lat="45.72671492363954" lon="9.732787529132805"><ele>274.0</ele><time>2026-04-07T17:43:39Z</time></trkpt><trkpt lat="45.72666227824932" lon="9.732914932043071"><ele>274.0</ele><time>2026-04-07T17:44:15Z</time></trkpt><trkpt lat="45.726597471176525" lon="9.732899231764614"><ele>274.0</ele><time>2026-04-07T17:44:19Z</time></trkpt><trkpt lat="45.72654091373937" lon="9.732967440181058"><ele>274.28571428571433</ele><time>2026-04-07T17:44:24Z</time></trkpt><trkpt lat="45.72655134552135" lon="9.73305732912131"><ele>274.57142857142856</ele><time>2026-04-07T17:44:31Z</time></trkpt><trkpt lat="45.72659193970432" lon="9.733129322911667"><ele>274.8571428571429</ele><time>2026-04-07T17:44:35Z</time></trkpt><trkpt lat="45.72665833732639" lon="9.733175631798762"><ele>275.14285714285717</ele><time>2026-04-07T17:44:40Z</time></trkpt><trkpt lat="45.72671748707269" lon="9.733219132371318"><ele>275.42857142857144</ele><time>2026-04-07T17:44:44Z</time></trkpt><trkpt lat="45.72676095950077" lon="9.733286880719927"><ele>275.7142857142857</ele><time>2026-04-07T17:44:48Z</time></trkpt><trkpt lat="45.72676205716665" lon="9.733377649257204"><ele>276.0</ele><time>2026-04-07T17:44:52Z</time></trkpt><trkpt lat="45.72676339156731" lon="9.73347562153369"><ele>276.0</ele><time>2026-04-07T17:44:55Z</time></trkpt><trkpt lat="45.726817079874664" lon="9.733533294852618"><ele>276.0</ele><time>2026-04-07T17:44:58Z</time></trkpt><trkpt lat="45.726862766423174" lon="9.733618488360701"><ele>276.0</ele><time>2026-04-07T17:45:02Z</time></trkpt><trkpt lat="45.72692906636409" lon="9.733670744101229"><ele>276.0</ele><time>2026-04-07T17:45:06Z</time></trkpt><trkpt lat="45.72700664614497" lon="9.733629054377685"><ele>276.0</ele><time>2026-04-07T17:45:09Z</time></trkpt><trkpt lat="45.72707071706973" lon="9.733690977501436"><ele>276.0</ele><time>2026-04-07T17:45:14.001Z</time></trkpt><trkpt lat="45.72710445549147" lon="9.73377821734516"><ele>276.0</ele><time>2026-04-07T17:45:18Z</time></trkpt><trkpt lat="45.72715962919767" lon="9.733831431537327"><ele>276.0</ele><time>2026-04-07T17:45:23Z</time></trkpt><trkpt lat="45.72721200016195" lon="9.733882998878965"><ele>276.0</ele><time>2026-04-07T17:45:27Z</time></trkpt><trkpt lat="45.72725439279968" lon="9.733955797232523"><ele>276.0</ele><time>2026-04-07T17:45:31Z</time></trkpt><trkpt lat="45.72730470278693" lon="9.734016341546043"><ele>276.0</ele><time>2026-04-07T17:45:35Z</time></trkpt><trkpt lat="45.72736058001036" lon="9.734078490616033"><ele>276.0</ele><time>2026-04-07T17:45:40Z</time></trkpt><trkpt lat="45.72741403688385" lon="9.734153001949956"><ele>276.0</ele><time>2026-04-07T17:45:45Z</time></trkpt><trkpt lat="45.72747135138677" lon="9.734225484840852"><ele>276.0</ele><time>2026-04-07T17:45:50Z</time></trkpt><trkpt lat="45.72753933238916" lon="9.734261527408089"><ele>276.0</ele><time>2026-04-07T17:45:55Z</time></trkpt><trkpt lat="45.72760514359532" lon="9.734245085245142"><ele>276.0</ele><time>2026-04-07T17:46:00Z</time></trkpt><trkpt lat="45.727678866713006" lon="9.734236019895889"><ele>276.0</ele><time>2026-04-07T17:46:05Z</time></trkpt><trkpt lat="45.727749446685365" lon="9.734228127415754"><ele>276.0</ele><time>2026-04-07T17:46:10Z</time></trkpt><trkpt lat="45.72781859459024" lon="9.73426825280635"><ele>276.0</ele><time>2026-04-07T17:46:15Z</time></trkpt><trkpt lat="45.72787537721316" lon="9.734311864052724"><ele>276.0</ele><time>2026-04-07T17:46:19Z</time></trkpt><trkpt lat="45.72792190435345" lon="9.734379208795977"><ele>276.0</ele><time>2026-04-07T17:46:23Z</time></trkpt><trkpt lat="45.727970398909484" lon="9.734439428430301"><ele>276.0</ele><time>2026-04-07T17:46:27Z</time></trkpt><trkpt lat="45.72802808237908" lon="9.734513050508276"><ele>276.0</ele><time>2026-04-07T17:46:32Z</time></trkpt><trkpt lat="45.72807233955417" lon="9.734578042185651"><ele>276.0</ele><time>2026-04-07T17:46:36Z</time></trkpt><trkpt lat="45.72813803684165" lon="9.734640695533255"><ele>276.0</ele><time>2026-04-07T17:46:41Z</time></trkpt><trkpt lat="45.72819492767281" lon="9.734713628739863"><ele>276.0</ele><time>2026-04-07T17:46:46Z</time></trkpt><trkpt lat="45.72825055351619" lon="9.73475825473535"><ele>276.0</ele><time>2026-04-07T17:46:50Z</time></trkpt><trkpt lat="45.72829886268553" lon="9.734824244146056"><ele>276.0</ele><time>2026-04-07T17:46:54Z</time></trkpt><trkpt lat="45.7283578024968" lon="9.734880057973978"><ele>276.0</ele><time>2026-04-07T17:46:59Z</time></trkpt><trkpt lat="45.72840648471967" lon="9.734964859840566"><ele>276.0</ele><time>2026-04-07T17:47:04Z</time></trkpt><trkpt lat="45.728454801297275" lon="9.735055701135606"><ele>276.0</ele><time>2026-04-07T17:47:09Z</time></trkpt><trkpt lat="45.728505137884234" lon="9.73512328073595"><ele>276.0</ele><time>2026-04-07T17:47:13Z</time></trkpt><trkpt lat="45.728561382929264" lon="9.735197792584616"><ele>276.0</ele><time>2026-04-07T17:47:18Z</time></trkpt><trkpt lat="45.72860339083957" lon="9.735267099064814"><ele>276.0</ele><time>2026-04-07T17:47:22Z</time></trkpt><trkpt lat="45.72865295627472" lon="9.735345657006274"><ele>276.0</ele><time>2026-04-07T17:47:27Z</time></trkpt><trkpt lat="45.728706555852135" lon="9.735423154370952"><ele>276.14285714285717</ele><time>2026-04-07T17:47:32Z</time></trkpt><trkpt lat="45.72875694427863" lon="9.735480962326715"><ele>276.28571428571433</ele><time>2026-04-07T17:47:36Z</time></trkpt><trkpt lat="45.72880223000259" lon="9.735564130577552"><ele>276.42857142857144</ele><time>2026-04-07T17:47:41Z</time></trkpt><trkpt lat="45.72885483755003" lon="9.735643613817873"><ele>276.57142857142856</ele><time>2026-04-07T17:47:46Z</time></trkpt><trkpt lat="45.72890786382004" lon="9.735720903282802"><ele>276.71428571428567</ele><time>2026-04-07T17:47:51Z</time></trkpt><trkpt lat="45.72895611058405" lon="9.735793395702776"><ele>276.85714285714283</ele><time>2026-04-07T17:47:56Z</time></trkpt><trkpt lat="45.729011553855166" lon="9.735870175292693"><ele>277.0</ele><time>2026-04-07T17:48:01Z</time></trkpt><trkpt lat="45.729069453304966" lon="9.735949075353696"><ele>277.0</ele><time>2026-04-07T17:48:06Z</time></trkpt><trkpt lat="45.72912195001235" lon="9.736033673374026"><ele>277.0</ele><time>2026-04-07T17:48:11Z</time></trkpt><trkpt lat="45.72916729546817" lon="9.736114473209652"><ele>277.0</ele><time>2026-04-07T17:48:16Z</time></trkpt><trkpt lat="45.729207010897355" lon="9.736203673108584"><ele>277.0</ele><time>2026-04-07T17:48:21Z</time></trkpt><trkpt lat="45.7292345553315" lon="9.736291736952037"><ele>277.0</ele><time>2026-04-07T17:48:25Z</time></trkpt><trkpt lat="45.729284231939026" lon="9.73634727586905"><ele>277.0</ele><time>2026-04-07T17:48:28Z</time></trkpt><trkpt lat="45.72932925846096" lon="9.736425084433515"><ele>277.0</ele><time>2026-04-07T17:48:32Z</time></trkpt><trkpt lat="45.72937264445594" lon="9.73649395560184"><ele>277.2857142857143</ele><time>2026-04-07T17:48:36Z</time></trkpt><trkpt lat="45.729427367916955" lon="9.736567190825461"><ele>277.57142857142856</ele><time>2026-04-07T17:48:41Z</time></trkpt><trkpt lat="45.729487851240535" lon="9.736632545858143"><ele>277.85714285714283</ele><time>2026-04-07T17:48:46Z</time></trkpt><trkpt lat="45.72952663337589" lon="9.736724350558095"><ele>278.1428571428571</ele><time>2026-04-07T17:48:51Z</time></trkpt><trkpt lat="45.72957775280693" lon="9.736790649847526"><ele>278.42857142857144</ele><time>2026-04-07T17:48:55Z</time></trkpt><trkpt lat="45.72960477594016" lon="9.73688035129264"><ele>278.71428571428567</ele><time>2026-04-07T17:48:59Z</time></trkpt><trkpt lat="45.729624254712014" lon="9.73697238193072"><ele>279.0</ele><time>2026-04-07T17:49:03Z</time></trkpt><trkpt lat="45.729652150909864" lon="9.737061946371488"><ele>279.1428571428571</ele><time>2026-04-07T17:49:07Z</time></trkpt><trkpt lat="45.72968265416891" lon="9.737144129183003"><ele>279.2857142857143</ele><time>2026-04-07T17:49:11Z</time></trkpt><trkpt lat="45.729664609360604" lon="9.73724136282504"><ele>279.42857142857144</ele><time>2026-04-07T17:49:16Z</time></trkpt><trkpt lat="45.72960839496431" lon="9.73730908844553"><ele>279.57142857142856</ele><time>2026-04-07T17:49:20Z</time></trkpt><trkpt lat="45.72956822751049" lon="9.737379472612012"><ele>279.7142857142857</ele><time>2026-04-07T17:49:24Z</time></trkpt><trkpt lat="45.7295239240037" lon="9.737451172774463"><ele>279.85714285714283</ele><time>2026-04-07T17:49:28Z</time></trkpt><trkpt lat="45.729469400011105" lon="9.737517400501678"><ele>280.0</ele><time>2026-04-07T17:49:32Z</time></trkpt><trkpt lat="45.729425643071174" lon="9.737594330373788"><ele>279.85714285714283</ele><time>2026-04-07T17:49:36Z</time></trkpt><trkpt lat="45.7293756205807" lon="9.737664569580804"><ele>279.7142857142857</ele><time>2026-04-07T17:49:40Z</time></trkpt><trkpt lat="45.72933415932436" lon="9.737744217865092"><ele>279.57142857142856</ele><time>2026-04-07T17:49:44Z</time></trkpt><trkpt lat="45.729292955051726" lon="9.737824410661268"><ele>279.42857142857144</ele><time>2026-04-07T17:49:48Z</time></trkpt><trkpt lat="45.729237042482076" lon="9.737880387666241"><ele>279.2857142857143</ele><time>2026-04-07T17:49:52Z</time></trkpt><trkpt lat="45.72919970423135" lon="9.737954348855649"><ele>279.1428571428571</ele><time>2026-04-07T17:49:56Z</time></trkpt><trkpt lat="45.72915729773746" lon="9.738028457125466"><ele>279.0</ele><time>2026-04-07T17:50:00Z</time></trkpt><trkpt lat="45.72911019165699" lon="9.738103871511472"><ele>278.99999999999994</ele><time>2026-04-07T17:50:04Z</time></trkpt><trkpt lat="45.72905674148567" lon="9.738184889843366"><ele>279.0</ele><time>2026-04-07T17:50:09Z</time></trkpt><trkpt lat="45.72900900445127" lon="9.738261833014821"><ele>279.0</ele><time>2026-04-07T17:50:13Z</time></trkpt><trkpt lat="45.72895258244734" lon="9.738314440780437"><ele>279.0</ele><time>2026-04-07T17:50:17Z</time></trkpt><trkpt lat="45.7288877825249" lon="9.738335061543943"><ele>279.0</ele><time>2026-04-07T17:50:21Z</time></trkpt><trkpt lat="45.72883719634668" lon="9.738418067458808"><ele>278.99999999999994</ele><time>2026-04-07T17:50:26Z</time></trkpt><trkpt lat="45.728781097708776" lon="9.738491372525404"><ele>279.0</ele><time>2026-04-07T17:50:31Z</time></trkpt><trkpt lat="45.72874076990294" lon="9.738561711863634"><ele>279.2857142857143</ele><time>2026-04-07T17:50:35Z</time></trkpt><trkpt lat="45.728688730496586" lon="9.738630677375099"><ele>279.57142857142856</ele><time>2026-04-07T17:50:40Z</time></trkpt><trkpt lat="45.72864348868283" lon="9.73870237546282"><ele>279.8571428571429</ele><time>2026-04-07T17:50:44Z</time></trkpt><trkpt lat="45.72858723776261" lon="9.738785089255773"><ele>280.1428571428571</ele><time>2026-04-07T17:50:49Z</time></trkpt><trkpt lat="45.728518732753756" lon="9.738819724529018"><ele>280.42857142857144</ele><time>2026-04-07T17:50:54Z</time></trkpt><trkpt lat="45.7284464909586" lon="9.738808993703422"><ele>280.7142857142857</ele><time>2026-04-07T17:50:58Z</time></trkpt><trkpt lat="45.72838782926461" lon="9.73876518618883"><ele>281.0</ele><time>2026-04-07T17:51:02Z</time></trkpt><trkpt lat="45.72833971097285" lon="9.73870317791947"><ele>281.00000000000006</ele><time>2026-04-07T17:51:06Z</time></trkpt><trkpt lat="45.72827225180391" lon="9.738645890328492"><ele>281.0</ele><time>2026-04-07T17:51:11Z</time></trkpt><trkpt lat="45.72820711388583" lon="9.738626089809829"><ele>281.0</ele><time>2026-04-07T17:51:15Z</time></trkpt><trkpt lat="45.72813892199921" lon="9.738629990804368"><ele>281.0</ele><time>2026-04-07T17:51:19Z</time></trkpt><trkpt lat="45.72806904137374" lon="9.738620112260106"><ele>281.0</ele><time>2026-04-07T17:51:23Z</time></trkpt><trkpt lat="45.728012985652796" lon="9.738573645149394"><ele>281.00000000000006</ele><time>2026-04-07T17:51:26.999Z</time></trkpt><trkpt lat="45.72795440219877" lon="9.738527250022754"><ele>281.0</ele><time>2026-04-07T17:51:31Z</time></trkpt><trkpt lat="45.72789869927829" lon="9.738452165484693"><ele>280.8571428571429</ele><time>2026-04-07T17:51:35Z</time></trkpt><trkpt lat="45.727849436512095" lon="9.738390122071472"><ele>280.7142857142857</ele><time>2026-04-07T17:51:39Z</time></trkpt><trkpt lat="45.7277916199567" lon="9.738321638056952"><ele>280.57142857142856</ele><time>2026-04-07T17:51:44Z</time></trkpt><trkpt lat="45.72774793818371" lon="9.738244426264696"><ele>280.42857142857144</ele><time>2026-04-07T17:51:48Z</time></trkpt><trkpt lat="45.7277044608347" lon="9.738169528458002"><ele>280.2857142857143</ele><time>2026-04-07T17:51:52Z</time></trkpt><trkpt lat="45.727653306756814" lon="9.738098708982086"><ele>280.14285714285717</ele><time>2026-04-07T17:51:56Z</time></trkpt><trkpt lat="45.72761653375058" lon="9.738018577689326"><ele>280.0</ele><time>2026-04-07T17:52:00Z</time></trkpt><trkpt lat="45.727560439594754" lon="9.737945292626398"><ele>279.85714285714283</ele><time>2026-04-07T17:52:04Z</time></trkpt><trkpt lat="45.727509923193864" lon="9.73787666370874"><ele>279.7142857142857</ele><time>2026-04-07T17:52:08Z</time></trkpt><trkpt lat="45.7274672242219" lon="9.737803303305842"><ele>279.57142857142856</ele><time>2026-04-07T17:52:12Z</time></trkpt><trkpt lat="45.72741922399596" lon="9.737723140056458"><ele>279.42857142857144</ele><time>2026-04-07T17:52:17Z</time></trkpt><trkpt lat="45.72736557087231" lon="9.737651287155805"><ele>279.2857142857143</ele><time>2026-04-07T17:52:21Z</time></trkpt><trkpt lat="45.72732014151562" lon="9.73756453358609"><ele>279.1428571428571</ele><time>2026-04-07T17:52:26Z</time></trkpt><trkpt lat="45.72726125177438" lon="9.737599534160784"><ele>279.0</ele><time>2026-04-07T17:52:30Z</time></trkpt><trkpt lat="45.72720433091507" lon="9.737546079864995"><ele>278.99999999999994</ele><time>2026-04-07T17:52:34Z</time></trkpt><trkpt lat="45.72714877732202" lon="9.737475239724143"><ele>279.0</ele><time>2026-04-07T17:52:39Z</time></trkpt><trkpt lat="45.72711859009255" lon="9.73737039347086"><ele>279.0</ele><time>2026-04-07T17:52:43Z</time></trkpt><trkpt lat="45.727087564107215" lon="9.737269147447808"><ele>279.0</ele><time>2026-04-07T17:52:47Z</time></trkpt><trkpt lat="45.72706037871516" lon="9.73717807979132"><ele>279.0</ele><time>2026-04-07T17:52:52Z</time></trkpt><trkpt lat="45.727020488591876" lon="9.737098425152158"><ele>278.99999999999994</ele><time>2026-04-07T17:52:56Z</time></trkpt><trkpt lat="45.72697601971196" lon="9.73702002306905"><ele>279.0</ele><time>2026-04-07T17:53:00Z</time></trkpt><trkpt lat="45.726933886571985" lon="9.736946791703758"><ele>278.99999999999994</ele><time>2026-04-07T17:53:05Z</time></trkpt><trkpt lat="45.72689649903545" lon="9.736857747267004"><ele>279.0</ele><time>2026-04-07T17:53:09Z</time></trkpt><trkpt lat="45.72686155238168" lon="9.736779444303151"><ele>279.0</ele><time>2026-04-07T17:53:13Z</time></trkpt><trkpt lat="45.72681645755421" lon="9.73669621854346"><ele>279.0</ele><time>2026-04-07T17:53:17Z</time></trkpt><trkpt lat="45.726756518254675" lon="9.736646350376075"><ele>279.0</ele><time>2026-04-07T17:53:21Z</time></trkpt><trkpt lat="45.72670286908328" lon="9.736578908500167"><ele>278.99999999999994</ele><time>2026-04-07T17:53:25Z</time></trkpt><trkpt lat="45.72666090495951" lon="9.736503798211839"><ele>279.0</ele><time>2026-04-07T17:53:29Z</time></trkpt><trkpt lat="45.726620958842396" lon="9.736420108325309"><ele>278.71428571428567</ele><time>2026-04-07T17:53:33Z</time></trkpt><trkpt lat="45.72656959893598" lon="9.736337198790864"><ele>278.42857142857144</ele><time>2026-04-07T17:53:38.001Z</time></trkpt><trkpt lat="45.72652133992868" lon="9.736247245964721"><ele>278.1428571428571</ele><time>2026-04-07T17:53:43.001Z</time></trkpt><trkpt lat="45.72646872014864" lon="9.736187285861073"><ele>277.85714285714283</ele><time>2026-04-07T17:53:47.001Z</time></trkpt><trkpt lat="45.72640868915342" lon="9.736134304660679"><ele>277.57142857142856</ele><time>2026-04-07T17:53:51Z</time></trkpt><trkpt lat="45.726345512728244" lon="9.73608136515466"><ele>277.2857142857143</ele><time>2026-04-07T17:53:55Z</time></trkpt><trkpt lat="45.72629524625076" lon="9.736009906577062"><ele>277.0</ele><time>2026-04-07T17:53:59Z</time></trkpt><trkpt lat="45.726243695218045" lon="9.735957027173724"><ele>276.85714285714283</ele><time>2026-04-07T17:54:03Z</time></trkpt><trkpt lat="45.7261736456733" lon="9.735898361903725"><ele>276.71428571428567</ele><time>2026-04-07T17:54:08Z</time></trkpt><trkpt lat="45.726118010871886" lon="9.73583928232302"><ele>276.57142857142856</ele><time>2026-04-07T17:54:12Z</time></trkpt><trkpt lat="45.72606138397798" lon="9.73576674015865"><ele>276.42857142857144</ele><time>2026-04-07T17:54:16Z</time></trkpt><trkpt lat="45.7260202473965" lon="9.735697124337221"><ele>276.28571428571433</ele><time>2026-04-07T17:54:20Z</time></trkpt><trkpt lat="45.72595087304687" lon="9.735663181173717"><ele>276.14285714285717</ele><time>2026-04-07T17:54:24Z</time></trkpt><trkpt lat="45.72588549018229" lon="9.735650362622806"><ele>276.0</ele><time>2026-04-07T17:54:28Z</time></trkpt><trkpt lat="45.72581901752173" lon="9.735634590136904"><ele>276.0</ele><time>2026-04-07T17:54:32Z</time></trkpt><trkpt lat="45.725765169209275" lon="9.735578177328943"><ele>276.0</ele><time>2026-04-07T17:54:36Z</time></trkpt><trkpt lat="45.725701066675384" lon="9.735614406446397"><ele>276.0</ele><time>2026-04-07T17:54:40Z</time></trkpt><trkpt lat="45.72564775006097" lon="9.735670062626188"><ele>276.0</ele><time>2026-04-07T17:54:45Z</time></trkpt><trkpt lat="45.72558133796791" lon="9.735687501071206"><ele>276.0</ele><time>2026-04-07T17:54:50Z</time></trkpt><trkpt lat="45.72552575264236" lon="9.735771251890167"><ele>276.0</ele><time>2026-04-07T17:54:55Z</time></trkpt><trkpt lat="45.72549430466962" lon="9.73585215702683"><ele>276.0</ele><time>2026-04-07T17:54:59Z</time></trkpt><trkpt lat="45.72544583978637" lon="9.735931489736684"><ele>276.0</ele><time>2026-04-07T17:55:03Z</time></trkpt><trkpt lat="45.72540232037849" lon="9.736009474161976"><ele>276.0</ele><time>2026-04-07T17:55:07Z</time></trkpt><trkpt lat="45.72534917764221" lon="9.73606710067947"><ele>276.0</ele><time>2026-04-07T17:55:11Z</time></trkpt><trkpt lat="45.725316567411504" lon="9.736150549792393"><ele>276.0</ele><time>2026-04-07T17:55:15Z</time></trkpt><trkpt lat="45.725271381540786" lon="9.736214889211874"><ele>276.0</ele><time>2026-04-07T17:55:19Z</time></trkpt><trkpt lat="45.725214846070934" lon="9.736286521209317"><ele>276.0</ele><time>2026-04-07T17:55:24Z</time></trkpt><trkpt lat="45.72517516942573" lon="9.73635992901295"><ele>276.0</ele><time>2026-04-07T17:55:28Z</time></trkpt><trkpt lat="45.72513593084908" lon="9.736431520909415"><ele>276.14285714285717</ele><time>2026-04-07T17:55:32Z</time></trkpt><trkpt lat="45.725067638429906" lon="9.736494032877218"><ele>276.28571428571433</ele><time>2026-04-07T17:55:36Z</time></trkpt><trkpt lat="45.72501738114361" lon="9.73655192608425"><ele>276.42857142857144</ele><time>2026-04-07T17:55:40Z</time></trkpt><trkpt lat="45.72496538165105" lon="9.736623269841667"><ele>276.57142857142856</ele><time>2026-04-07T17:55:44.001Z</time></trkpt><trkpt lat="45.724911980847686" lon="9.736691564163976"><ele>276.71428571428567</ele><time>2026-04-07T17:55:48.001Z</time></trkpt><trkpt lat="45.724857898817305" lon="9.736758809274917"><ele>276.85714285714283</ele><time>2026-04-07T17:55:52.001Z</time></trkpt><trkpt lat="45.72480743335636" lon="9.736826491696117"><ele>277.0</ele><time>2026-04-07T17:55:56.001Z</time></trkpt><trkpt lat="45.7247553667968" lon="9.736884889211796"><ele>277.1428571428571</ele><time>2026-04-07T17:56:00.001Z</time></trkpt><trkpt lat="45.72470172729203" lon="9.7369717769895"><ele>277.2857142857143</ele><time>2026-04-07T17:56:05Z</time></trkpt><trkpt lat="45.72465160662774" lon="9.737044252545727"><ele>277.42857142857144</ele><time>2026-04-07T17:56:09Z</time></trkpt><trkpt lat="45.724611495862895" lon="9.737116190691584"><ele>277.57142857142856</ele><time>2026-04-07T17:56:13Z</time></trkpt><trkpt lat="45.72456409136531" lon="9.737178941036674"><ele>277.7142857142857</ele><time>2026-04-07T17:56:17Z</time></trkpt><trkpt lat="45.72450184502047" lon="9.737234561703023"><ele>277.85714285714283</ele><time>2026-04-07T17:56:21Z</time></trkpt><trkpt lat="45.72446074399314" lon="9.737303423035092"><ele>278.0</ele><time>2026-04-07T17:56:25Z</time></trkpt><trkpt lat="45.724411843910424" lon="9.737364426774832"><ele>278.42857142857144</ele><time>2026-04-07T17:56:29Z</time></trkpt><trkpt lat="45.72434906313512" lon="9.737433951977447"><ele>278.8571428571429</ele><time>2026-04-07T17:56:33Z</time></trkpt><trkpt lat="45.72429271100232" lon="9.737480056194103"><ele>279.28571428571433</ele><time>2026-04-07T17:56:37Z</time></trkpt><trkpt lat="45.724214380975326" lon="9.737503160515882"><ele>279.7142857142857</ele><time>2026-04-07T17:56:41Z</time></trkpt><trkpt lat="45.724149442504675" lon="9.73745539064615"><ele>280.14285714285717</ele><time>2026-04-07T17:56:45Z</time></trkpt><trkpt lat="45.72410745099793" lon="9.737368006072021"><ele>280.5714285714286</ele><time>2026-04-07T17:56:49Z</time></trkpt><trkpt lat="45.724078806232555" lon="9.737270988138173"><ele>281.0</ele><time>2026-04-07T17:56:53Z</time></trkpt><trkpt lat="45.72404397795413" lon="9.737187346772208"><ele>281.00000000000006</ele><time>2026-04-07T17:56:57Z</time></trkpt><trkpt lat="45.723994715867285" lon="9.737096534840662"><ele>281.0</ele><time>2026-04-07T17:57:02Z</time></trkpt><trkpt lat="45.72395584254693" lon="9.737021598280437"><ele>281.0</ele><time>2026-04-07T17:57:06Z</time></trkpt><trkpt lat="45.72392852712327" lon="9.736936983255108"><ele>281.0</ele><time>2026-04-07T17:57:10Z</time></trkpt><trkpt lat="45.72387999194302" lon="9.73684887731549"><ele>281.0</ele><time>2026-04-07T17:57:15Z</time></trkpt><trkpt lat="45.72385989320343" lon="9.736750563705533"><ele>281.00000000000006</ele><time>2026-04-07T17:57:19Z</time></trkpt><trkpt lat="45.72382324038423" lon="9.736663161295386"><ele>281.0</ele><time>2026-04-07T17:57:23Z</time></trkpt><trkpt lat="45.72378535015926" lon="9.736576075981032"><ele>280.5714285714286</ele><time>2026-04-07T17:57:27Z</time></trkpt><trkpt lat="45.72375361793852" lon="9.736489569646258"><ele>280.14285714285717</ele><time>2026-04-07T17:57:31Z</time></trkpt><trkpt lat="45.72373295151845" lon="9.73638064330273"><ele>279.7142857142857</ele><time>2026-04-07T17:57:35Z</time></trkpt><trkpt lat="45.723707058794794" lon="9.736290645086477"><ele>279.28571428571433</ele><time>2026-04-07T17:57:39Z</time></trkpt><trkpt lat="45.72366643855885" lon="9.736217860846272"><ele>278.8571428571429</ele><time>2026-04-07T17:57:43Z</time></trkpt><trkpt lat="45.72363529738114" lon="9.736134832716694"><ele>278.42857142857144</ele><time>2026-04-07T17:57:47.001Z</time></trkpt><trkpt lat="45.72358128671819" lon="9.73606215807308"><ele>278.0</ele><time>2026-04-07T17:57:52.001Z</time></trkpt><trkpt lat="45.72354620167473" lon="9.735985672372562"><ele>278.0</ele><time>2026-04-07T17:57:56.001Z</time></trkpt><trkpt lat="45.72349203555427" lon="9.735904185746032"><ele>278.0</ele><time>2026-04-07T17:58:01.001Z</time></trkpt><trkpt lat="45.72344260862643" lon="9.735840973031866"><ele>278.0</ele><time>2026-04-07T17:58:05Z</time></trkpt><trkpt lat="45.723392956773615" lon="9.735776147930634"><ele>278.0</ele><time>2026-04-07T17:58:09Z</time></trkpt><trkpt lat="45.723340654370816" lon="9.735691508190154"><ele>278.0</ele><time>2026-04-07T17:58:14Z</time></trkpt><trkpt lat="45.72328982212834" lon="9.735623693429941"><ele>278.0</ele><time>2026-04-07T17:58:18Z</time></trkpt><trkpt lat="45.723246378451535" lon="9.735549291494381"><ele>278.0</ele><time>2026-04-07T17:58:22Z</time></trkpt><trkpt lat="45.72320036463011" lon="9.735486315637699"><ele>278.0</ele><time>2026-04-07T17:58:26Z</time></trkpt><trkpt lat="45.72315453082854" lon="9.735424457821404"><ele>278.0</ele><time>2026-04-07T17:58:30Z</time></trkpt><trkpt lat="45.72308557468189" lon="9.735423496040973"><ele>278.0</ele><time>2026-04-07T17:58:35Z</time></trkpt><trkpt lat="45.72302244602511" lon="9.735385539093693"><ele>278.0</ele><time>2026-04-07T17:58:39Z</time></trkpt><trkpt lat="45.72297364316704" lon="9.735327517382931"><ele>278.0</ele><time>2026-04-07T17:58:43Z</time></trkpt><trkpt lat="45.72290089520321" lon="9.73529360997167"><ele>278.0</ele><time>2026-04-07T17:58:48Z</time></trkpt><trkpt lat="45.72284279563789" lon="9.735356803627955"><ele>278.0</ele><time>2026-04-07T17:58:52Z</time></trkpt><trkpt lat="45.72279865151349" lon="9.735421980363746"><ele>278.0</ele><time>2026-04-07T17:58:56Z</time></trkpt><trkpt lat="45.72276941359774" lon="9.735503427915418"><ele>278.0</ele><time>2026-04-07T17:59:00Z</time></trkpt><trkpt lat="45.72274033104755" lon="9.735587205221151"><ele>278.0</ele><time>2026-04-07T17:59:04Z</time></trkpt><trkpt lat="45.72270829450782" lon="9.73566835194024"><ele>278.0</ele><time>2026-04-07T17:59:08Z</time></trkpt><trkpt lat="45.72269520487639" lon="9.735762819828754"><ele>278.0</ele><time>2026-04-07T17:59:12Z</time></trkpt><trkpt lat="45.72266688575222" lon="9.735869025971938"><ele>278.0</ele><time>2026-04-07T17:59:17Z</time></trkpt><trkpt lat="45.72265007009572" lon="9.735956415341919"><ele>278.0</ele><time>2026-04-07T17:59:21Z</time></trkpt><trkpt lat="45.722583300772385" lon="9.736016353426917"><ele>278.1428571428571</ele><time>2026-04-07T17:59:25Z</time></trkpt><trkpt lat="45.722516492232224" lon="9.736046290907588"><ele>278.2857142857143</ele><time>2026-04-07T17:59:29Z</time></trkpt><trkpt lat="45.72246281996072" lon="9.735979876512479"><ele>278.42857142857144</ele><time>2026-04-07T17:59:34Z</time></trkpt><trkpt lat="45.72240331634364" lon="9.735937286368474"><ele>278.57142857142856</ele><time>2026-04-07T17:59:38Z</time></trkpt><trkpt lat="45.722337811606536" lon="9.73589230974164"><ele>278.7142857142857</ele><time>2026-04-07T17:59:41.999Z</time></trkpt><trkpt lat="45.72228154014761" lon="9.735850409698688"><ele>278.85714285714283</ele><time>2026-04-07T17:59:45.999Z</time></trkpt><trkpt lat="45.72221938880238" lon="9.735814793574681"><ele>279.0</ele><time>2026-04-07T17:59:49.999Z</time></trkpt><trkpt lat="45.72216030657777" lon="9.735782577167726"><ele>278.99999999999994</ele><time>2026-04-07T17:59:54Z</time></trkpt><trkpt lat="45.72208640391433" lon="9.735745968187196"><ele>279.0</ele><time>2026-04-07T17:59:59Z</time></trkpt><trkpt lat="45.722012792854336" lon="9.735751380633795"><ele>279.0</ele><time>2026-04-07T18:00:04Z</time></trkpt><trkpt lat="45.72194586392348" lon="9.735772531805951"><ele>279.0</ele><time>2026-04-07T18:00:08Z</time></trkpt><trkpt lat="45.72188383595004" lon="9.735790854015862"><ele>279.0</ele><time>2026-04-07T18:00:12Z</time></trkpt><trkpt lat="45.721820945164275" lon="9.735818279204837"><ele>278.99999999999994</ele><time>2026-04-07T18:00:17Z</time></trkpt><trkpt lat="45.72177629940892" lon="9.735753760721286"><ele>279.0</ele><time>2026-04-07T18:00:24Z</time></trkpt><trkpt lat="45.721736131728704" lon="9.735657925287137"><ele>279.0</ele><time>2026-04-07T18:00:28Z</time></trkpt><trkpt lat="45.72170561208862" lon="9.735577708558761"><ele>279.0</ele><time>2026-04-07T18:00:32Z</time></trkpt><trkpt lat="45.721663319029844" lon="9.735500093339901"><ele>279.0</ele><time>2026-04-07T18:00:36Z</time></trkpt><trkpt lat="45.721627264781276" lon="9.735422119209"><ele>279.0</ele><time>2026-04-07T18:00:40Z</time></trkpt><trkpt lat="45.721580616385204" lon="9.73534844752829"><ele>279.0</ele><time>2026-04-07T18:00:44Z</time></trkpt><trkpt lat="45.72148290016636" lon="9.735610160806544"><ele>278.99999999999994</ele><time>2026-04-07T18:01:00Z</time></trkpt><trkpt lat="45.72142905719168" lon="9.735671806956233"><ele>279.0</ele><time>2026-04-07T18:01:04Z</time></trkpt><trkpt lat="45.72140949492892" lon="9.735758834724074"><ele>279.0</ele><time>2026-04-07T18:01:07Z</time></trkpt><trkpt lat="45.721370989286356" lon="9.735833146236043"><ele>279.0</ele><time>2026-04-07T18:01:12Z</time></trkpt><trkpt lat="45.72133726689944" lon="9.735929999314218"><ele>279.0</ele><time>2026-04-07T18:01:16Z</time></trkpt><trkpt lat="45.72129519151669" lon="9.736017794909705"><ele>278.99999999999994</ele><time>2026-04-07T18:01:22Z</time></trkpt><trkpt lat="45.72123822086871" lon="9.736092786685187"><ele>279.0</ele><time>2026-04-07T18:01:26Z</time></trkpt><trkpt lat="45.72117349258769" lon="9.736106604738987"><ele>278.85714285714283</ele><time>2026-04-07T18:01:29Z</time></trkpt><trkpt lat="45.721107864250584" lon="9.736095636046942"><ele>278.7142857142857</ele><time>2026-04-07T18:01:32.999Z</time></trkpt><trkpt lat="45.72104079296342" lon="9.73608127172165"><ele>278.57142857142856</ele><time>2026-04-07T18:01:36.999Z</time></trkpt><trkpt lat="45.72096766318175" lon="9.736072853890573"><ele>278.42857142857144</ele><time>2026-04-07T18:01:41.999Z</time></trkpt><trkpt lat="45.72089391737442" lon="9.736060766993898"><ele>278.2857142857143</ele><time>2026-04-07T18:01:45.999Z</time></trkpt><trkpt lat="45.720824750906495" lon="9.736019982799904"><ele>278.1428571428571</ele><time>2026-04-07T18:01:50.999Z</time></trkpt><trkpt lat="45.720761020450404" lon="9.736022167406855"><ele>278.0</ele><time>2026-04-07T18:01:54.999Z</time></trkpt><trkpt lat="45.72075203849775" lon="9.736120200920837"><ele>278.0</ele><time>2026-04-07T18:02:00Z</time></trkpt><trkpt lat="45.72073377884245" lon="9.736211881179287"><ele>278.0</ele><time>2026-04-07T18:02:04Z</time></trkpt><trkpt lat="45.72073308081489" lon="9.736318880328401"><ele>278.0</ele><time>2026-04-07T18:02:09Z</time></trkpt><trkpt lat="45.720721238618076" lon="9.736407752453074"><ele>278.0</ele><time>2026-04-07T18:02:13Z</time></trkpt><trkpt lat="45.720696151680976" lon="9.736511670092673"><ele>278.0</ele><time>2026-04-07T18:02:18Z</time></trkpt><trkpt lat="45.7206547946502" lon="9.736585734955964"><ele>278.0</ele><time>2026-04-07T18:02:22Z</time></trkpt><trkpt lat="45.720655230398634" lon="9.736678474475246"><ele>278.0</ele><time>2026-04-07T18:02:26Z</time></trkpt><trkpt lat="45.72063365123614" lon="9.736773716498469"><ele>278.0</ele><time>2026-04-07T18:02:31Z</time></trkpt><trkpt lat="45.7206317810266" lon="9.736870385926986"><ele>278.0</ele><time>2026-04-07T18:02:35Z</time></trkpt><trkpt lat="45.72059555765301" lon="9.736951968666377"><ele>278.0</ele><time>2026-04-07T18:02:39Z</time></trkpt><trkpt lat="45.720590556816006" lon="9.737052502830824"><ele>278.0</ele><time>2026-04-07T18:02:43Z</time></trkpt><trkpt lat="45.7205654019365" lon="9.737143995314138"><ele>278.0</ele><time>2026-04-07T18:02:47Z</time></trkpt><trkpt lat="45.72051927671081" lon="9.737227574487022"><ele>278.0</ele><time>2026-04-07T18:02:51Z</time></trkpt><trkpt lat="45.720447298805205" lon="9.737238439074424"><ele>278.0</ele><time>2026-04-07T18:02:55Z</time></trkpt><trkpt lat="45.72037543084737" lon="9.737221893813636"><ele>278.1428571428571</ele><time>2026-04-07T18:02:59Z</time></trkpt><trkpt lat="45.72029663069444" lon="9.7372062943514"><ele>278.2857142857143</ele><time>2026-04-07T18:03:04Z</time></trkpt><trkpt lat="45.720224650302086" lon="9.737211496307017"><ele>278.42857142857144</ele><time>2026-04-07T18:03:08Z</time></trkpt><trkpt lat="45.72014929076984" lon="9.737186926162622"><ele>278.57142857142856</ele><time>2026-04-07T18:03:13Z</time></trkpt><trkpt lat="45.72009087436249" lon="9.737146918582997"><ele>278.7142857142857</ele><time>2026-04-07T18:03:17Z</time></trkpt><trkpt lat="45.72001878397781" lon="9.73714780347446"><ele>278.85714285714283</ele><time>2026-04-07T18:03:21Z</time></trkpt><trkpt lat="45.719942042918106" lon="9.737120069937644"><ele>279.0</ele><time>2026-04-07T18:03:26Z</time></trkpt><trkpt lat="45.71986868539888" lon="9.737116511441455"><ele>278.99999999999994</ele><time>2026-04-07T18:03:30Z</time></trkpt><trkpt lat="45.71980538769078" lon="9.73710267595985"><ele>279.0</ele><time>2026-04-07T18:03:33.999Z</time></trkpt><trkpt lat="45.71974587106888" lon="9.737067085827489"><ele>279.0</ele><time>2026-04-07T18:03:37.999Z</time></trkpt><trkpt lat="45.719681793285176" lon="9.737063882275164"><ele>279.0</ele><time>2026-04-07T18:03:41.999Z</time></trkpt><trkpt lat="45.7196188268771" lon="9.737030074425272"><ele>279.0</ele><time>2026-04-07T18:03:45.999Z</time></trkpt><trkpt lat="45.71955016713067" lon="9.737047365976865"><ele>278.99999999999994</ele><time>2026-04-07T18:03:49.999Z</time></trkpt><trkpt lat="45.71948686012442" lon="9.737036866187458"><ele>279.0</ele><time>2026-04-07T18:03:53.999Z</time></trkpt><trkpt lat="45.7194243043517" lon="9.737024603650589"><ele>278.99999999999994</ele><time>2026-04-07T18:03:57.999Z</time></trkpt><trkpt lat="45.71936458712998" lon="9.736962200546474"><ele>279.0</ele><time>2026-04-07T18:04:01.999Z</time></trkpt><trkpt lat="45.71930487184897" lon="9.736921275674577"><ele>279.0</ele><time>2026-04-07T18:04:06Z</time></trkpt><trkpt lat="45.71924684359278" lon="9.736882828672568"><ele>279.0</ele><time>2026-04-07T18:04:10Z</time></trkpt><trkpt lat="45.71917835783587" lon="9.736860463896173"><ele>279.0</ele><time>2026-04-07T18:04:14Z</time></trkpt><trkpt lat="45.719118853310555" lon="9.736819445438375"><ele>278.99999999999994</ele><time>2026-04-07T18:04:18Z</time></trkpt><trkpt lat="45.71905721088066" lon="9.736797563264302"><ele>279.0</ele><time>2026-04-07T18:04:22Z</time></trkpt><trkpt lat="45.718989176229414" lon="9.736770829872384"><ele>278.85714285714283</ele><time>2026-04-07T18:04:26Z</time></trkpt><trkpt lat="45.718913727809266" lon="9.736739229233875"><ele>278.7142857142857</ele><time>2026-04-07T18:04:31Z</time></trkpt><trkpt lat="45.718855084116875" lon="9.736699963441078"><ele>278.57142857142856</ele><time>2026-04-07T18:04:35Z</time></trkpt><trkpt lat="45.71885093184348" lon="9.736589384343803"><ele>278.42857142857144</ele><time>2026-04-07T18:04:39Z</time></trkpt><trkpt lat="45.718856244082566" lon="9.73648573937771"><ele>278.2857142857143</ele><time>2026-04-07T18:04:44Z</time></trkpt><trkpt lat="45.718880208743826" lon="9.73638057882411"><ele>278.1428571428571</ele><time>2026-04-07T18:04:48Z</time></trkpt><trkpt lat="45.71888462463392" lon="9.73628717168703"><ele>278.0</ele><time>2026-04-07T18:04:52Z</time></trkpt><trkpt lat="45.718928045459805" lon="9.736215042815115"><ele>278.0</ele><time>2026-04-07T18:04:56Z</time></trkpt><trkpt lat="45.718941699445686" lon="9.736109506173603"><ele>278.0</ele><time>2026-04-07T18:05:00Z</time></trkpt><trkpt lat="45.71896537772366" lon="9.736021785818206"><ele>278.0</ele><time>2026-04-07T18:05:04Z</time></trkpt><trkpt lat="45.71896051418003" lon="9.735917642947925"><ele>278.0</ele><time>2026-04-07T18:05:08Z</time></trkpt><trkpt lat="45.71894661824562" lon="9.735829075944403"><ele>278.0</ele><time>2026-04-07T18:05:12Z</time></trkpt><trkpt lat="45.71897400128856" lon="9.735744294882098"><ele>278.0</ele><time>2026-04-07T18:05:16Z</time></trkpt><trkpt lat="45.7189844435032" lon="9.735649775917548"><ele>278.0</ele><time>2026-04-07T18:05:20Z</time></trkpt><trkpt lat="45.71898303531485" lon="9.73554648444062"><ele>278.0</ele><time>2026-04-07T18:05:24Z</time></trkpt><trkpt lat="45.718982728957144" lon="9.735455074556889"><ele>278.0</ele><time>2026-04-07T18:05:28Z</time></trkpt><trkpt lat="45.71898883057011" lon="9.735359198494056"><ele>278.0</ele><time>2026-04-07T18:05:32Z</time></trkpt><trkpt lat="45.718971810300005" lon="9.735253911838454"><ele>278.0</ele><time>2026-04-07T18:05:37Z</time></trkpt><trkpt lat="45.71898030290591" lon="9.735152233406028"><ele>278.0</ele><time>2026-04-07T18:05:41.999Z</time></trkpt><trkpt lat="45.7189777107584" lon="9.735035369059577"><ele>278.0</ele><time>2026-04-07T18:05:46.999Z</time></trkpt><trkpt lat="45.71895045799563" lon="9.734948313064107"><ele>278.0</ele><time>2026-04-07T18:05:50.999Z</time></trkpt><trkpt lat="45.71894383877806" lon="9.734841969112686"><ele>278.0</ele><time>2026-04-07T18:05:55.999Z</time></trkpt><trkpt lat="45.71894877134127" lon="9.734741687364027"><ele>278.0</ele><time>2026-04-07T18:05:59.999Z</time></trkpt><trkpt lat="45.71894187028627" lon="9.73462840455961"><ele>278.0</ele><time>2026-04-07T18:06:03.999Z</time></trkpt><trkpt lat="45.71894333353603" lon="9.73453582665926"><ele>278.0</ele><time>2026-04-07T18:06:07.999Z</time></trkpt><trkpt lat="45.71894469977226" lon="9.734427010373123"><ele>278.0</ele><time>2026-04-07T18:06:13Z</time></trkpt><trkpt lat="45.71895069969131" lon="9.734318725692528"><ele>278.0</ele><time>2026-04-07T18:06:18Z</time></trkpt><trkpt lat="45.71895000600135" lon="9.734212189180692"><ele>278.0</ele><time>2026-04-07T18:06:23Z</time></trkpt><trkpt lat="45.718955948805764" lon="9.73411166572281"><ele>278.0</ele><time>2026-04-07T18:06:28Z</time></trkpt><trkpt lat="45.71896374106475" lon="9.734003799421705"><ele>278.0</ele><time>2026-04-07T18:06:33Z</time></trkpt><trkpt lat="45.71895198266044" lon="9.733900929480207"><ele>278.0</ele><time>2026-04-07T18:06:38Z</time></trkpt><trkpt lat="45.718950118103734" lon="9.733793577525574"><ele>278.0</ele><time>2026-04-07T18:06:43Z</time></trkpt><trkpt lat="45.718929022390654" lon="9.73368707234754"><ele>278.0</ele><time>2026-04-07T18:06:48Z</time></trkpt><trkpt lat="45.71887788508117" lon="9.73360830201065"><ele>278.0</ele><time>2026-04-07T18:06:53Z</time></trkpt><trkpt lat="45.718811073959756" lon="9.733573372983743"><ele>278.0</ele><time>2026-04-07T18:06:58Z</time></trkpt><trkpt lat="45.71874025035083" lon="9.733560782801629"><ele>278.0</ele><time>2026-04-07T18:07:03Z</time></trkpt><trkpt lat="45.718676144254054" lon="9.733582158067899"><ele>278.0</ele><time>2026-04-07T18:07:07Z</time></trkpt><trkpt lat="45.71861581514851" lon="9.733610411136567"><ele>278.0</ele><time>2026-04-07T18:07:11Z</time></trkpt><trkpt lat="45.71854981304293" lon="9.733629549129933"><ele>278.0</ele><time>2026-04-07T18:07:15Z</time></trkpt><trkpt lat="45.718486097380776" lon="9.733614749745076"><ele>278.0</ele><time>2026-04-07T18:07:19Z</time></trkpt><trkpt lat="45.71842106860768" lon="9.733570173286408"><ele>278.0</ele><time>2026-04-07T18:07:23Z</time></trkpt><trkpt lat="45.71835435430188" lon="9.733539991398054"><ele>278.0</ele><time>2026-04-07T18:07:27Z</time></trkpt><trkpt lat="45.71828984677746" lon="9.733526877000669"><ele>277.85714285714283</ele><time>2026-04-07T18:07:31Z</time></trkpt><trkpt lat="45.71822372996374" lon="9.733509593336404"><ele>277.7142857142857</ele><time>2026-04-07T18:07:35Z</time></trkpt><trkpt lat="45.718209845653675" lon="9.733410731389666"><ele>277.57142857142856</ele><time>2026-04-07T18:07:38Z</time></trkpt><trkpt lat="45.71818880142426" lon="9.733316376906673"><ele>277.42857142857144</ele><time>2026-04-07T18:07:42.999Z</time></trkpt><trkpt lat="45.7182023921057" lon="9.733205579503283"><ele>277.2857142857143</ele><time>2026-04-07T18:07:48.999Z</time></trkpt><trkpt lat="45.718212723554984" lon="9.733108681125842"><ele>277.1428571428571</ele><time>2026-04-07T18:07:52.999Z</time></trkpt><trkpt lat="45.71822997022849" lon="9.733016556698852"><ele>277.0</ele><time>2026-04-07T18:07:56.999Z</time></trkpt><trkpt lat="45.71823118454009" lon="9.732917562455217"><ele>277.0</ele><time>2026-04-07T18:08:00.999Z</time></trkpt><trkpt lat="45.71823702185128" lon="9.732817981353874"><ele>277.0</ele><time>2026-04-07T18:08:04.999Z</time></trkpt><trkpt lat="45.71824296423349" lon="9.732721523838695"><ele>277.0</ele><time>2026-04-07T18:08:08.999Z</time></trkpt><trkpt lat="45.71820428528242" lon="9.732648545421222"><ele>277.0</ele><time>2026-04-07T18:08:12.999Z</time></trkpt><trkpt lat="45.718142790350285" lon="9.73258140833653"><ele>277.0</ele><time>2026-04-07T18:08:18Z</time></trkpt><trkpt lat="45.71809123729674" lon="9.732528902528658"><ele>277.0</ele><time>2026-04-07T18:08:22Z</time></trkpt><trkpt lat="45.718037127299944" lon="9.732476420188169"><ele>277.0</ele><time>2026-04-07T18:08:26Z</time></trkpt><trkpt lat="45.71796456017825" lon="9.732456643681934"><ele>276.85714285714283</ele><time>2026-04-07T18:08:31Z</time></trkpt><trkpt lat="45.71789321170261" lon="9.732446082299129"><ele>276.71428571428567</ele><time>2026-04-07T18:08:36Z</time></trkpt><trkpt lat="45.71783198952498" lon="9.732420163900255"><ele>276.57142857142856</ele><time>2026-04-07T18:08:40Z</time></trkpt><trkpt lat="45.717765031682575" lon="9.732404126027934"><ele>276.42857142857144</ele><time>2026-04-07T18:08:44Z</time></trkpt><trkpt lat="45.717697381624944" lon="9.73238105094644"><ele>276.28571428571433</ele><time>2026-04-07T18:08:48Z</time></trkpt><trkpt lat="45.71763064278529" lon="9.732358065021808"><ele>276.14285714285717</ele><time>2026-04-07T18:08:52Z</time></trkpt><trkpt lat="45.71756231454445" lon="9.732335020611826"><ele>276.0</ele><time>2026-04-07T18:08:56Z</time></trkpt><trkpt lat="45.71748983463933" lon="9.732334041350637"><ele>275.8571428571429</ele><time>2026-04-07T18:09:00Z</time></trkpt><trkpt lat="45.71742915717651" lon="9.732308013493649"><ele>275.7142857142857</ele><time>2026-04-07T18:09:04Z</time></trkpt><trkpt lat="45.71735314696815" lon="9.732288227092988"><ele>275.57142857142856</ele><time>2026-04-07T18:09:09Z</time></trkpt><trkpt lat="45.717289262814774" lon="9.732271553429307"><ele>275.42857142857144</ele><time>2026-04-07T18:09:13Z</time></trkpt><trkpt lat="45.71722335596191" lon="9.73226121646435"><ele>275.2857142857143</ele><time>2026-04-07T18:09:17Z</time></trkpt><trkpt lat="45.71715871587257" lon="9.732234606349206"><ele>275.14285714285717</ele><time>2026-04-07T18:09:21Z</time></trkpt><trkpt lat="45.71709076529585" lon="9.732225416047793"><ele>275.0</ele><time>2026-04-07T18:09:25Z</time></trkpt><trkpt lat="45.71701472698005" lon="9.732209755326826"><ele>275.0</ele><time>2026-04-07T18:09:29.999Z</time></trkpt><trkpt lat="45.71694702618413" lon="9.732209764877437"><ele>275.0</ele><time>2026-04-07T18:09:33.999Z</time></trkpt><trkpt lat="45.71687557824054" lon="9.732232646494625"><ele>274.0</ele><time>2026-04-07T18:09:37.999Z</time></trkpt></trkseg></trk></gpx>